sensor_id;sensor_type;location;lat;lon;timestamp;P1;durP1;ratioP1;P2;durP2;ratioP2
74383;SDS011;62824;52.994;-3.936;2022-11-03T00:01:03;3.72;;;0.88;;
74383;SDS011;62824;52.994;-3.936;2022-11-03T00:03:29;5.15;;;1.00;;
74383;SDS011;62824;52.994;-3.936;2022-11-03T00:05:55;4.43;;;1.00;;
74383;SDS011;62824;52.994;-3.936;2022-11-03T00:08:33;3.45;;;0.88;;
74383;SDS011;62824;52.994;-3.936;2022-11-03T00:13:36;8.15;;;1.00;;
74383;SDS011;62824;52.994;-3.936;2022-11-03T00:16:03;3.95;;;1.40;;
74383;SDS011;62824;52.994;-3.936;2022-11-03T00:18:30;6.13;;;1.17;;
74383;SDS011;62824;52.994;-3.936;2022-11-03T00:21:00;4.95;;;0.90;;
74383;SDS011;62824;52.994;-3.936;2022-11-03T00:23:31;6.82;;;1.52;;
74383;SDS011;62824;52.994;-3.936;2022-11-03T00:26:05;3.60;;;1.23;;
74383;SDS011;62824;52.994;-3.936;2022-11-03T00:28:42;4.18;;;1.13;;
74383;SDS011;62824;52.994;-3.936;2022-11-03T00:31:10;5.22;;;1.20;;
74383;SDS011;62824;52.994;-3.936;2022-11-03T00:33:40;3.30;;;0.90;;
74383;SDS011;62824;52.994;-3.936;2022-11-03T00:36:07;3.63;;;0.90;;
74383;SDS011;62824;52.994;-3.936;2022-11-03T00:38:36;7.60;;;1.10;;
74383;SDS011;62824;52.994;-3.936;2022-11-03T00:41:02;4.88;;;1.15;;
74383;SDS011;62824;52.994;-3.936;2022-11-03T00:43:30;7.88;;;1.48;;
74383;SDS011;62824;52.994;-3.936;2022-11-03T00:45:57;4.40;;;1.20;;
74383;SDS011;62824;52.994;-3.936;2022-11-03T00:48:23;5.22;;;1.23;;
74383;SDS011;62824;52.994;-3.936;2022-11-03T00:51:05;4.20;;;1.48;;
74383;SDS011;62824;52.994;-3.936;2022-11-03T00:53:34;5.72;;;0.90;;
74383;SDS011;62824;52.994;-3.936;2022-11-03T00:56:02;5.00;;;1.25;;
74383;SDS011;62824;52.994;-3.936;2022-11-03T00:58:28;7.60;;;1.25;;
74383;SDS011;62824;52.994;-3.936;2022-11-03T01:00:57;5.53;;;0.98;;
74383;SDS011;62824;52.994;-3.936;2022-11-03T01:03:24;4.20;;;1.00;;
74383;SDS011;62824;52.994;-3.936;2022-11-03T01:05:50;4.38;;;0.95;;
74383;SDS011;62824;52.994;-3.936;2022-11-03T01:08:34;5.47;;;1.05;;
74383;SDS011;62824;52.994;-3.936;2022-11-03T01:11:05;5.60;;;1.45;;
74383;SDS011;62824;52.994;-3.936;2022-11-03T01:13:49;2.97;;;0.90;;
74383;SDS011;62824;52.994;-3.936;2022-11-03T01:16:30;3.30;;;0.90;;
74383;SDS011;62824;52.994;-3.936;2022-11-03T01:18:56;3.35;;;0.88;;
74383;SDS011;62824;52.994;-3.936;2022-11-03T01:21:23;7.65;;;1.20;;
74383;SDS011;62824;52.994;-3.936;2022-11-03T01:23:49;2.50;;;0.98;;
74383;SDS011;62824;52.994;-3.936;2022-11-03T01:26:14;2.17;;;0.90;;
74383;SDS011;62824;52.994;-3.936;2022-11-03T01:28:42;1.98;;;1.00;;
74383;SDS011;62824;52.994;-3.936;2022-11-03T01:31:10;7.18;;;0.95;;
74383;SDS011;62824;52.994;-3.936;2022-11-03T01:33:41;5.80;;;1.08;;
74383;SDS011;62824;52.994;-3.936;2022-11-03T01:36:09;3.35;;;1.00;;
74383;SDS011;62824;52.994;-3.936;2022-11-03T01:38:36;5.72;;;1.20;;
74383;SDS011;62824;52.994;-3.936;2022-11-03T01:41:03;4.28;;;1.52;;
74383;SDS011;62824;52.994;-3.936;2022-11-03T01:43:30;1.77;;;0.73;;
74383;SDS011;62824;52.994;-3.936;2022-11-03T01:46:04;4.70;;;1.00;;
74383;SDS011;62824;52.994;-3.936;2022-11-03T01:48:31;5.78;;;0.98;;
74383;SDS011;62824;52.994;-3.936;2022-11-03T01:50:59;4.80;;;0.90;;
74383;SDS011;62824;52.994;-3.936;2022-11-03T01:53:28;2.80;;;1.00;;
74383;SDS011;62824;52.994;-3.936;2022-11-03T01:55:55;2.55;;;1.25;;
74383;SDS011;62824;52.994;-3.936;2022-11-03T01:58:32;5.75;;;0.77;;
74383;SDS011;62824;52.994;-3.936;2022-11-03T02:01:01;4.40;;;0.77;;
74383;SDS011;62824;52.994;-3.936;2022-11-03T02:03:28;4.95;;;0.90;;
74383;SDS011;62824;52.994;-3.936;2022-11-03T02:05:59;5.20;;;0.95;;
74383;SDS011;62824;52.994;-3.936;2022-11-03T02:08:29;5.03;;;1.27;;
74383;SDS011;62824;52.994;-3.936;2022-11-03T02:11:05;5.05;;;0.93;;
74383;SDS011;62824;52.994;-3.936;2022-11-03T02:13:50;5.60;;;1.02;;
74383;SDS011;62824;52.994;-3.936;2022-11-03T02:38:33;1.77;;;0.98;;
74383;SDS011;62824;52.994;-3.936;2022-11-03T02:41:03;3.80;;;0.90;;
74383;SDS011;62824;52.994;-3.936;2022-11-03T02:43:32;2.17;;;0.90;;
74383;SDS011;62824;52.994;-3.936;2022-11-03T02:45:58;2.10;;;0.80;;
74383;SDS011;62824;52.994;-3.936;2022-11-03T02:48:25;5.97;;;1.00;;
74383;SDS011;62824;52.994;-3.936;2022-11-03T02:50:51;3.10;;;0.73;;
74383;SDS011;62824;52.994;-3.936;2022-11-03T02:53:19;3.67;;;0.90;;
74383;SDS011;62824;52.994;-3.936;2022-11-03T02:55:47;1.88;;;1.35;;
74383;SDS011;62824;52.994;-3.936;2022-11-03T02:58:32;7.13;;;1.27;;
74383;SDS011;62824;52.994;-3.936;2022-11-03T03:03:46;3.08;;;0.98;;
74383;SDS011;62824;52.994;-3.936;2022-11-03T03:06:22;2.65;;;0.88;;
74383;SDS011;62824;52.994;-3.936;2022-11-03T03:09:05;8.02;;;1.30;;
74383;SDS011;62824;52.994;-3.936;2022-11-03T03:11:33;5.55;;;0.82;;
74383;SDS011;62824;52.994;-3.936;2022-11-03T03:14:03;2.17;;;0.88;;
74383;SDS011;62824;52.994;-3.936;2022-11-03T03:16:32;5.70;;;1.00;;
74383;SDS011;62824;52.994;-3.936;2022-11-03T03:19:07;8.50;;;1.02;;
74383;SDS011;62824;52.994;-3.936;2022-11-03T03:21:42;3.22;;;0.77;;
74383;SDS011;62824;52.994;-3.936;2022-11-03T03:24:46;5.07;;;1.15;;
74383;SDS011;62824;52.994;-3.936;2022-11-03T03:27:11;3.40;;;1.10;;
74383;SDS011;62824;52.994;-3.936;2022-11-03T03:29:41;4.72;;;1.20;;
74383;SDS011;62824;52.994;-3.936;2022-11-03T03:32:15;2.30;;;0.60;;
74383;SDS011;62824;52.994;-3.936;2022-11-03T03:34:46;3.17;;;0.68;;
74383;SDS011;62824;52.994;-3.936;2022-11-03T03:37:14;4.35;;;1.20;;
74383;SDS011;62824;52.994;-3.936;2022-11-03T03:39:42;4.68;;;0.93;;
74383;SDS011;62824;52.994;-3.936;2022-11-03T03:42:12;1.45;;;0.70;;
74383;SDS011;62824;52.994;-3.936;2022-11-03T03:44:39;3.45;;;0.82;;
74383;SDS011;62824;52.994;-3.936;2022-11-03T03:47:11;1.95;;;0.63;;
74383;SDS011;62824;52.994;-3.936;2022-11-03T03:49:42;5.18;;;1.15;;
74383;SDS011;62824;52.994;-3.936;2022-11-03T03:52:07;7.60;;;1.08;;
74383;SDS011;62824;52.994;-3.936;2022-11-03T03:54:34;3.28;;;0.80;;
74383;SDS011;62824;52.994;-3.936;2022-11-03T03:57:00;3.08;;;1.52;;
74383;SDS011;62824;52.994;-3.936;2022-11-03T03:59:28;3.70;;;0.80;;
74383;SDS011;62824;52.994;-3.936;2022-11-03T04:01:55;4.57;;;1.55;;
74383;SDS011;62824;52.994;-3.936;2022-11-03T04:04:21;5.28;;;0.68;;
74383;SDS011;62824;52.994;-3.936;2022-11-03T04:06:47;4.95;;;1.02;;
74383;SDS011;62824;52.994;-3.936;2022-11-03T04:09:12;5.45;;;1.27;;
74383;SDS011;62824;52.994;-3.936;2022-11-03T04:11:38;5.00;;;1.23;;
74383;SDS011;62824;52.994;-3.936;2022-11-03T04:14:23;5.20;;;1.00;;
74383;SDS011;62824;52.994;-3.936;2022-11-03T04:17:19;4.43;;;0.80;;
74383;SDS011;62824;52.994;-3.936;2022-11-03T04:20:05;3.55;;;1.00;;
74383;SDS011;62824;52.994;-3.936;2022-11-03T04:22:55;4.35;;;1.20;;
74383;SDS011;62824;52.994;-3.936;2022-11-03T04:25:20;4.13;;;1.10;;
74383;SDS011;62824;52.994;-3.936;2022-11-03T04:27:46;4.30;;;1.20;;
74383;SDS011;62824;52.994;-3.936;2022-11-03T04:32:42;7.18;;;1.13;;
74383;SDS011;62824;52.994;-3.936;2022-11-03T04:35:19;4.20;;;1.05;;
74383;SDS011;62824;52.994;-3.936;2022-11-03T04:37:54;4.55;;;1.10;;
74383;SDS011;62824;52.994;-3.936;2022-11-03T04:40:41;2.88;;;0.68;;
74383;SDS011;62824;52.994;-3.936;2022-11-03T04:43:16;2.75;;;0.80;;
74383;SDS011;62824;52.994;-3.936;2022-11-03T04:45:46;2.83;;;1.00;;
74383;SDS011;62824;52.994;-3.936;2022-11-03T04:48:14;3.58;;;1.02;;
74383;SDS011;62824;52.994;-3.936;2022-11-03T04:50:43;3.38;;;1.05;;
74383;SDS011;62824;52.994;-3.936;2022-11-03T04:53:15;4.35;;;1.23;;
74383;SDS011;62824;52.994;-3.936;2022-11-03T04:55:43;5.97;;;1.20;;
74383;SDS011;62824;52.994;-3.936;2022-11-03T04:58:31;5.85;;;1.50;;
74383;SDS011;62824;52.994;-3.936;2022-11-03T05:01:00;2.85;;;0.98;;
74383;SDS011;62824;52.994;-3.936;2022-11-03T05:03:34;4.95;;;0.88;;
74383;SDS011;62824;52.994;-3.936;2022-11-03T05:06:14;4.15;;;1.00;;
74383;SDS011;62824;52.994;-3.936;2022-11-03T05:08:42;4.70;;;1.50;;
74383;SDS011;62824;52.994;-3.936;2022-11-03T05:11:19;6.88;;;1.05;;
74383;SDS011;62824;52.994;-3.936;2022-11-03T05:13:56;4.17;;;1.20;;
74383;SDS011;62824;52.994;-3.936;2022-11-03T05:16:25;3.70;;;0.93;;
74383;SDS011;62824;52.994;-3.936;2022-11-03T05:18:51;11.70;;;1.30;;
74383;SDS011;62824;52.994;-3.936;2022-11-03T05:21:18;6.10;;;1.85;;
74383;SDS011;62824;52.994;-3.936;2022-11-03T05:23:50;7.20;;;1.50;;
74383;SDS011;62824;52.994;-3.936;2022-11-03T05:26:19;2.67;;;0.87;;
74383;SDS011;62824;52.994;-3.936;2022-11-03T05:31:53;5.78;;;1.30;;
74383;SDS011;62824;52.994;-3.936;2022-11-03T05:36:48;5.30;;;1.30;;
74383;SDS011;62824;52.994;-3.936;2022-11-03T05:39:30;6.40;;;1.17;;
74383;SDS011;62824;52.994;-3.936;2022-11-03T05:42:00;7.85;;;1.25;;
74383;SDS011;62824;52.994;-3.936;2022-11-03T05:44:39;7.28;;;1.80;;
74383;SDS011;62824;52.994;-3.936;2022-11-03T05:47:08;8.45;;;1.38;;
74383;SDS011;62824;52.994;-3.936;2022-11-03T05:49:41;6.13;;;1.45;;
74383;SDS011;62824;52.994;-3.936;2022-11-03T05:52:12;4.78;;;1.42;;
74383;SDS011;62824;52.994;-3.936;2022-11-03T05:54:43;4.68;;;1.40;;
74383;SDS011;62824;52.994;-3.936;2022-11-03T05:57:09;6.05;;;1.70;;
74383;SDS011;62824;52.994;-3.936;2022-11-03T05:59:37;8.65;;;1.20;;
74383;SDS011;62824;52.994;-3.936;2022-11-03T06:02:03;4.07;;;1.25;;
74383;SDS011;62824;52.994;-3.936;2022-11-03T06:04:45;4.53;;;1.58;;
74383;SDS011;62824;52.994;-3.936;2022-11-03T06:07:14;2.50;;;1.13;;
74383;SDS011;62824;52.994;-3.936;2022-11-03T06:09:47;6.07;;;1.52;;
74383;SDS011;62824;52.994;-3.936;2022-11-03T06:12:14;6.20;;;1.13;;
74383;SDS011;62824;52.994;-3.936;2022-11-03T06:14:42;4.30;;;1.48;;
74383;SDS011;62824;52.994;-3.936;2022-11-03T06:17:29;5.95;;;1.30;;
74383;SDS011;62824;52.994;-3.936;2022-11-03T06:19:55;4.32;;;1.27;;
74383;SDS011;62824;52.994;-3.936;2022-11-03T06:22:33;3.40;;;1.38;;
74383;SDS011;62824;52.994;-3.936;2022-11-03T06:25:07;4.47;;;1.33;;
74383;SDS011;62824;52.994;-3.936;2022-11-03T06:27:49;7.85;;;1.38;;
74383;SDS011;62824;52.994;-3.936;2022-11-03T06:30:26;5.13;;;1.23;;
74383;SDS011;62824;52.994;-3.936;2022-11-03T06:33:00;9.60;;;1.50;;
74383;SDS011;62824;52.994;-3.936;2022-11-03T06:35:30;6.18;;;1.65;;
74383;SDS011;62824;52.994;-3.936;2022-11-03T06:37:56;5.15;;;1.30;;
74383;SDS011;62824;52.994;-3.936;2022-11-03T06:40:33;9.70;;;1.40;;
74383;SDS011;62824;52.994;-3.936;2022-11-03T06:43:07;8.68;;;1.55;;
74383;SDS011;62824;52.994;-3.936;2022-11-03T06:45:38;5.30;;;1.40;;
74383;SDS011;62824;52.994;-3.936;2022-11-03T06:48:15;7.22;;;1.50;;
74383;SDS011;62824;52.994;-3.936;2022-11-03T06:50:54;6.60;;;1.92;;
74383;SDS011;62824;52.994;-3.936;2022-11-03T06:53:23;5.90;;;1.70;;
74383;SDS011;62824;52.994;-3.936;2022-11-03T06:55:51;7.13;;;1.55;;
74383;SDS011;62824;52.994;-3.936;2022-11-03T06:58:34;3.40;;;1.40;;
74383;SDS011;62824;52.994;-3.936;2022-11-03T07:01:02;6.00;;;1.48;;
74383;SDS011;62824;52.994;-3.936;2022-11-03T07:03:58;7.50;;;1.35;;
74383;SDS011;62824;52.994;-3.936;2022-11-03T07:06:30;8.80;;;1.77;;
74383;SDS011;62824;52.994;-3.936;2022-11-03T07:09:01;9.80;;;1.85;;
74383;SDS011;62824;52.994;-3.936;2022-11-03T07:11:29;7.78;;;1.70;;
74383;SDS011;62824;52.994;-3.936;2022-11-03T07:14:10;6.15;;;1.30;;
74383;SDS011;62824;52.994;-3.936;2022-11-03T07:16:42;4.43;;;1.60;;
74383;SDS011;62824;52.994;-3.936;2022-11-03T07:19:16;5.63;;;1.23;;
74383;SDS011;62824;52.994;-3.936;2022-11-03T07:21:48;8.32;;;1.63;;
74383;SDS011;62824;52.994;-3.936;2022-11-03T07:24:18;5.13;;;1.40;;
74383;SDS011;62824;52.994;-3.936;2022-11-03T07:26:50;6.28;;;1.45;;
74383;SDS011;62824;52.994;-3.936;2022-11-03T07:29:38;7.22;;;1.52;;
74383;SDS011;62824;52.994;-3.936;2022-11-03T07:32:10;3.90;;;1.20;;
74383;SDS011;62824;52.994;-3.936;2022-11-03T07:34:43;5.05;;;1.67;;
74383;SDS011;62824;52.994;-3.936;2022-11-03T07:37:13;5.55;;;1.77;;
74383;SDS011;62824;52.994;-3.936;2022-11-03T07:39:43;6.47;;;1.50;;
74383;SDS011;62824;52.994;-3.936;2022-11-03T07:42:12;8.02;;;1.98;;
74383;SDS011;62824;52.994;-3.936;2022-11-03T07:44:42;7.45;;;1.40;;
74383;SDS011;62824;52.994;-3.936;2022-11-03T07:47:24;6.43;;;1.48;;
74383;SDS011;62824;52.994;-3.936;2022-11-03T07:49:51;6.35;;;1.77;;
74383;SDS011;62824;52.994;-3.936;2022-11-03T07:52:21;8.88;;;2.10;;
74383;SDS011;62824;52.994;-3.936;2022-11-03T07:54:53;7.00;;;2.17;;
74383;SDS011;62824;52.994;-3.936;2022-11-03T07:57:27;7.55;;;1.67;;
74383;SDS011;62824;52.994;-3.936;2022-11-03T08:00:05;5.75;;;1.73;;
74383;SDS011;62824;52.994;-3.936;2022-11-03T08:02:50;5.68;;;1.38;;
74383;SDS011;62824;52.994;-3.936;2022-11-03T08:05:23;6.63;;;1.63;;
74383;SDS011;62824;52.994;-3.936;2022-11-03T08:07:49;3.95;;;1.50;;
74383;SDS011;62824;52.994;-3.936;2022-11-03T08:10:14;6.38;;;1.30;;
74383;SDS011;62824;52.994;-3.936;2022-11-03T08:12:40;11.95;;;1.38;;
74383;SDS011;62824;52.994;-3.936;2022-11-03T08:15:06;10.00;;;1.65;;
74383;SDS011;62824;52.994;-3.936;2022-11-03T08:17:32;4.60;;;1.10;;
74383;SDS011;62824;52.994;-3.936;2022-11-03T08:19:58;4.85;;;1.25;;
74383;SDS011;62824;52.994;-3.936;2022-11-03T08:22:23;7.25;;;1.75;;
74383;SDS011;62824;52.994;-3.936;2022-11-03T08:24:50;6.47;;;1.15;;
74383;SDS011;62824;52.994;-3.936;2022-11-03T08:27:16;4.47;;;1.20;;
74383;SDS011;62824;52.994;-3.936;2022-11-03T08:29:43;4.78;;;2.08;;
74383;SDS011;62824;52.994;-3.936;2022-11-03T08:32:09;4.57;;;1.27;;
74383;SDS011;62824;52.994;-3.936;2022-11-03T08:34:35;4.95;;;1.60;;
74383;SDS011;62824;52.994;-3.936;2022-11-03T08:37:00;4.57;;;1.08;;
74383;SDS011;62824;52.994;-3.936;2022-11-03T08:39:26;5.20;;;1.40;;
74383;SDS011;62824;52.994;-3.936;2022-11-03T08:41:52;6.63;;;1.50;;
74383;SDS011;62824;52.994;-3.936;2022-11-03T08:44:18;5.80;;;0.90;;
74383;SDS011;62824;52.994;-3.936;2022-11-03T08:46:43;2.90;;;1.00;;
74383;SDS011;62824;52.994;-3.936;2022-11-03T08:49:27;5.28;;;1.45;;
74383;SDS011;62824;52.994;-3.936;2022-11-03T08:51:53;5.60;;;1.20;;
74383;SDS011;62824;52.994;-3.936;2022-11-03T08:54:19;4.05;;;1.02;;
74383;SDS011;62824;52.994;-3.936;2022-11-03T08:56:44;8.48;;;1.60;;
74383;SDS011;62824;52.994;-3.936;2022-11-03T08:59:12;5.57;;;2.45;;
74383;SDS011;62824;52.994;-3.936;2022-11-03T09:01:38;6.65;;;2.15;;
74383;SDS011;62824;52.994;-3.936;2022-11-03T09:04:04;9.80;;;1.45;;
74383;SDS011;62824;52.994;-3.936;2022-11-03T09:06:29;4.53;;;2.08;;
74383;SDS011;62824;52.994;-3.936;2022-11-03T09:08:55;6.93;;;1.83;;
74383;SDS011;62824;52.994;-3.936;2022-11-03T09:11:21;6.50;;;2.65;;
74383;SDS011;62824;52.994;-3.936;2022-11-03T09:13:47;7.63;;;2.50;;
74383;SDS011;62824;52.994;-3.936;2022-11-03T09:16:13;5.07;;;1.83;;
74383;SDS011;62824;52.994;-3.936;2022-11-03T09:18:38;6.03;;;1.60;;
74383;SDS011;62824;52.994;-3.936;2022-11-03T09:21:04;6.00;;;1.40;;
74383;SDS011;62824;52.994;-3.936;2022-11-03T09:23:30;5.43;;;1.95;;
74383;SDS011;62824;52.994;-3.936;2022-11-03T09:25:56;6.38;;;2.00;;
74383;SDS011;62824;52.994;-3.936;2022-11-03T09:28:22;5.18;;;2.13;;
74383;SDS011;62824;52.994;-3.936;2022-11-03T09:30:48;6.22;;;1.52;;
74383;SDS011;62824;52.994;-3.936;2022-11-03T09:33:14;5.78;;;1.90;;
74383;SDS011;62824;52.994;-3.936;2022-11-03T09:35:40;5.25;;;1.23;;
74383;SDS011;62824;52.994;-3.936;2022-11-03T09:38:05;4.65;;;1.52;;
74383;SDS011;62824;52.994;-3.936;2022-11-03T09:40:31;2.72;;;1.25;;
74383;SDS011;62824;52.994;-3.936;2022-11-03T09:42:58;5.00;;;2.72;;
74383;SDS011;62824;52.994;-3.936;2022-11-03T09:45:24;2.58;;;0.82;;
74383;SDS011;62824;52.994;-3.936;2022-11-03T09:47:50;2.55;;;1.00;;
74383;SDS011;62824;52.994;-3.936;2022-11-03T09:50:17;3.10;;;1.10;;
74383;SDS011;62824;52.994;-3.936;2022-11-03T09:52:45;6.40;;;1.92;;
74383;SDS011;62824;52.994;-3.936;2022-11-03T09:55:13;2.55;;;1.10;;
74383;SDS011;62824;52.994;-3.936;2022-11-03T09:57:41;1.73;;;0.73;;
74383;SDS011;62824;52.994;-3.936;2022-11-03T10:00:17;2.85;;;1.42;;
74383;SDS011;62824;52.994;-3.936;2022-11-03T10:02:45;4.80;;;1.35;;
74383;SDS011;62824;52.994;-3.936;2022-11-03T10:05:17;1.33;;;0.75;;
74383;SDS011;62824;52.994;-3.936;2022-11-03T10:07:51;2.63;;;1.13;;
74383;SDS011;62824;52.994;-3.936;2022-11-03T10:10:22;4.30;;;1.35;;
74383;SDS011;62824;52.994;-3.936;2022-11-03T10:12:48;2.70;;;0.85;;
74383;SDS011;62824;52.994;-3.936;2022-11-03T10:15:17;1.75;;;0.70;;
74383;SDS011;62824;52.994;-3.936;2022-11-03T10:17:46;2.45;;;0.90;;
74383;SDS011;62824;52.994;-3.936;2022-11-03T10:20:16;3.40;;;0.70;;
74383;SDS011;62824;52.994;-3.936;2022-11-03T10:22:44;1.95;;;0.75;;
74383;SDS011;62824;52.994;-3.936;2022-11-03T10:25:27;1.65;;;1.00;;
74383;SDS011;62824;52.994;-3.936;2022-11-03T10:33:25;3.33;;;0.60;;
74383;SDS011;62824;52.994;-3.936;2022-11-03T10:35:53;2.53;;;0.80;;
74383;SDS011;62824;52.994;-3.936;2022-11-03T10:38:33;1.20;;;0.70;;
74383;SDS011;62824;52.994;-3.936;2022-11-03T10:43:40;3.53;;;0.70;;
74383;SDS011;62824;52.994;-3.936;2022-11-03T10:46:19;3.05;;;1.10;;
74383;SDS011;62824;52.994;-3.936;2022-11-03T10:51:34;1.98;;;0.80;;
74383;SDS011;62824;52.994;-3.936;2022-11-03T10:54:04;2.50;;;0.57;;
74383;SDS011;62824;52.994;-3.936;2022-11-03T10:56:34;2.05;;;0.73;;
74383;SDS011;62824;52.994;-3.936;2022-11-03T10:59:00;2.90;;;0.70;;
74383;SDS011;62824;52.994;-3.936;2022-11-03T11:01:26;2.28;;;0.75;;
74383;SDS011;62824;52.994;-3.936;2022-11-03T11:03:52;4.68;;;0.77;;
74383;SDS011;62824;52.994;-3.936;2022-11-03T11:06:20;2.33;;;0.95;;
74383;SDS011;62824;52.994;-3.936;2022-11-03T11:08:48;2.80;;;0.80;;
74383;SDS011;62824;52.994;-3.936;2022-11-03T11:11:18;1.65;;;0.50;;
74383;SDS011;62824;52.994;-3.936;2022-11-03T11:13:52;1.85;;;0.90;;
74383;SDS011;62824;52.994;-3.936;2022-11-03T11:16:48;1.67;;;0.88;;
74383;SDS011;62824;52.994;-3.936;2022-11-03T11:19:23;1.48;;;0.60;;
74383;SDS011;62824;52.994;-3.936;2022-11-03T11:29:57;5.32;;;0.88;;
74383;SDS011;62824;52.994;-3.936;2022-11-03T11:37:54;2.38;;;0.70;;
74383;SDS011;62824;52.994;-3.936;2022-11-03T11:43:35;3.92;;;1.13;;
74383;SDS011;62824;52.994;-3.936;2022-11-03T11:48:40;3.53;;;1.92;;
74383;SDS011;62824;52.994;-3.936;2022-11-03T11:51:07;6.15;;;2.80;;
74383;SDS011;62824;52.994;-3.936;2022-11-03T11:53:38;3.80;;;1.40;;
74383;SDS011;62824;52.994;-3.936;2022-11-03T11:56:08;2.65;;;0.75;;
74383;SDS011;62824;52.994;-3.936;2022-11-03T12:03:53;12.10;;;5.20;;
74383;SDS011;62824;52.994;-3.936;2022-11-03T12:06:34;10.23;;;3.40;;
74383;SDS011;62824;52.994;-3.936;2022-11-03T12:16:53;2.78;;;1.10;;
74383;SDS011;62824;52.994;-3.936;2022-11-03T12:19:36;3.13;;;1.15;;
74383;SDS011;62824;52.994;-3.936;2022-11-03T12:24:54;4.05;;;1.20;;
74383;SDS011;62824;52.994;-3.936;2022-11-03T12:29:53;2.90;;;1.27;;
74383;SDS011;62824;52.994;-3.936;2022-11-03T12:32:20;4.63;;;1.00;;
74383;SDS011;62824;52.994;-3.936;2022-11-03T12:34:46;3.47;;;1.00;;
74383;SDS011;62824;52.994;-3.936;2022-11-03T12:37:12;6.88;;;2.65;;
74383;SDS011;62824;52.994;-3.936;2022-11-03T12:39:38;6.35;;;1.23;;
74383;SDS011;62824;52.994;-3.936;2022-11-03T12:42:04;6.65;;;1.95;;
74383;SDS011;62824;52.994;-3.936;2022-11-03T12:44:30;1.52;;;0.80;;
74383;SDS011;62824;52.994;-3.936;2022-11-03T12:46:56;9.10;;;2.67;;
74383;SDS011;62824;52.994;-3.936;2022-11-03T12:49:22;3.58;;;1.20;;
74383;SDS011;62824;52.994;-3.936;2022-11-03T12:51:49;6.00;;;1.42;;
74383;SDS011;62824;52.994;-3.936;2022-11-03T12:57:06;2.08;;;0.90;;
74383;SDS011;62824;52.994;-3.936;2022-11-03T12:59:32;3.03;;;0.77;;
74383;SDS011;62824;52.994;-3.936;2022-11-03T13:01:58;1.27;;;0.60;;
74383;SDS011;62824;52.994;-3.936;2022-11-03T13:04:24;2.63;;;1.00;;
74383;SDS011;62824;52.994;-3.936;2022-11-03T13:06:49;3.92;;;1.33;;
74383;SDS011;62824;52.994;-3.936;2022-11-03T13:09:15;4.07;;;1.75;;
74383;SDS011;62824;52.994;-3.936;2022-11-03T13:11:41;2.28;;;1.17;;
74383;SDS011;62824;52.994;-3.936;2022-11-03T13:14:25;1.60;;;1.33;;
74383;SDS011;62824;52.994;-3.936;2022-11-03T13:16:51;4.43;;;0.80;;
74383;SDS011;62824;52.994;-3.936;2022-11-03T13:19:17;4.13;;;1.20;;
74383;SDS011;62824;52.994;-3.936;2022-11-03T13:21:42;1.90;;;1.30;;
74383;SDS011;62824;52.994;-3.936;2022-11-03T13:24:08;3.30;;;0.82;;
74383;SDS011;62824;52.994;-3.936;2022-11-03T13:26:34;0.77;;;0.47;;
74383;SDS011;62824;52.994;-3.936;2022-11-03T13:29:00;3.72;;;1.27;;
74383;SDS011;62824;52.994;-3.936;2022-11-03T13:31:26;2.30;;;0.75;;
74383;SDS011;62824;52.994;-3.936;2022-11-03T13:33:52;2.67;;;0.88;;
74383;SDS011;62824;52.994;-3.936;2022-11-03T13:36:18;1.33;;;0.65;;
74383;SDS011;62824;52.994;-3.936;2022-11-03T13:38:43;4.10;;;1.30;;
74383;SDS011;62824;52.994;-3.936;2022-11-03T13:41:09;3.03;;;1.15;;
74383;SDS011;62824;52.994;-3.936;2022-11-03T13:43:35;2.72;;;1.10;;
74383;SDS011;62824;52.994;-3.936;2022-11-03T13:46:01;3.33;;;1.10;;
74383;SDS011;62824;52.994;-3.936;2022-11-03T13:48:28;2.65;;;0.90;;
74383;SDS011;62824;52.994;-3.936;2022-11-03T13:50:54;3.15;;;1.20;;
74383;SDS011;62824;52.994;-3.936;2022-11-03T13:53:21;2.10;;;0.63;;
74383;SDS011;62824;52.994;-3.936;2022-11-03T13:55:47;4.93;;;1.00;;
74383;SDS011;62824;52.994;-3.936;2022-11-03T13:58:13;2.40;;;0.93;;
74383;SDS011;62824;52.994;-3.936;2022-11-03T14:00:39;1.45;;;0.65;;
74383;SDS011;62824;52.994;-3.936;2022-11-03T14:03:04;2.47;;;0.90;;
74383;SDS011;62824;52.994;-3.936;2022-11-03T14:05:30;4.93;;;1.08;;
74383;SDS011;62824;52.994;-3.936;2022-11-03T14:07:56;2.45;;;0.73;;
74383;SDS011;62824;52.994;-3.936;2022-11-03T14:10:22;2.85;;;0.70;;
74383;SDS011;62824;52.994;-3.936;2022-11-03T14:12:48;5.07;;;1.00;;
74383;SDS011;62824;52.994;-3.936;2022-11-03T14:15:14;3.53;;;1.42;;
74383;SDS011;62824;52.994;-3.936;2022-11-03T14:17:40;3.50;;;1.70;;
74383;SDS011;62824;52.994;-3.936;2022-11-03T14:20:06;4.25;;;1.30;;
74383;SDS011;62824;52.994;-3.936;2022-11-03T14:22:34;4.85;;;0.93;;
74383;SDS011;62824;52.994;-3.936;2022-11-03T14:25:00;6.63;;;1.10;;
74383;SDS011;62824;52.994;-3.936;2022-11-03T14:27:26;2.72;;;0.98;;
74383;SDS011;62824;52.994;-3.936;2022-11-03T14:29:52;2.55;;;1.00;;
74383;SDS011;62824;52.994;-3.936;2022-11-03T14:32:18;4.35;;;0.90;;
74383;SDS011;62824;52.994;-3.936;2022-11-03T14:34:44;4.10;;;1.20;;
74383;SDS011;62824;52.994;-3.936;2022-11-03T14:40:02;3.55;;;1.30;;
74383;SDS011;62824;52.994;-3.936;2022-11-03T14:42:30;4.85;;;1.98;;
74383;SDS011;62824;52.994;-3.936;2022-11-03T14:44:55;9.07;;;3.40;;
74383;SDS011;62824;52.994;-3.936;2022-11-03T14:47:21;7.32;;;1.42;;
74383;SDS011;62824;52.994;-3.936;2022-11-03T14:49:47;4.72;;;1.98;;
74383;SDS011;62824;52.994;-3.936;2022-11-03T14:52:13;10.73;;;4.72;;
74383;SDS011;62824;52.994;-3.936;2022-11-03T14:54:40;14.32;;;5.25;;
74383;SDS011;62824;52.994;-3.936;2022-11-03T14:57:07;7.32;;;2.53;;
74383;SDS011;62824;52.994;-3.936;2022-11-03T14:59:33;5.72;;;2.28;;
74383;SDS011;62824;52.994;-3.936;2022-11-03T15:02:00;4.30;;;2.20;;
74383;SDS011;62824;52.994;-3.936;2022-11-03T15:04:26;4.53;;;4.13;;
74383;SDS011;62824;52.994;-3.936;2022-11-03T15:06:52;5.45;;;2.25;;
74383;SDS011;62824;52.994;-3.936;2022-11-03T15:09:18;9.60;;;3.30;;
74383;SDS011;62824;52.994;-3.936;2022-11-03T15:11:44;5.50;;;2.70;;
74383;SDS011;62824;52.994;-3.936;2022-11-03T15:14:10;11.57;;;4.63;;
74383;SDS011;62824;52.994;-3.936;2022-11-03T15:16:37;8.07;;;3.60;;
74383;SDS011;62824;52.994;-3.936;2022-11-03T15:19:04;6.40;;;3.55;;
74383;SDS011;62824;52.994;-3.936;2022-11-03T15:21:30;5.82;;;3.53;;
74383;SDS011;62824;52.994;-3.936;2022-11-03T15:23:57;7.82;;;2.83;;
74383;SDS011;62824;52.994;-3.936;2022-11-03T15:26:23;5.80;;;2.20;;
74383;SDS011;62824;52.994;-3.936;2022-11-03T15:28:49;7.10;;;2.40;;
74383;SDS011;62824;52.994;-3.936;2022-11-03T15:31:14;2.92;;;1.58;;
74383;SDS011;62824;52.994;-3.936;2022-11-03T15:33:40;5.72;;;2.20;;
74383;SDS011;62824;52.994;-3.936;2022-11-03T15:36:06;15.35;;;5.90;;
74383;SDS011;62824;52.994;-3.936;2022-11-03T15:38:32;4.60;;;2.13;;
74383;SDS011;62824;52.994;-3.936;2022-11-03T15:40:59;7.63;;;2.67;;
74383;SDS011;62824;52.994;-3.936;2022-11-03T15:43:47;6.65;;;2.30;;
74383;SDS011;62824;52.994;-3.936;2022-11-03T15:46:15;3.42;;;2.10;;
74383;SDS011;62824;52.994;-3.936;2022-11-03T15:48:42;5.13;;;3.60;;
74383;SDS011;62824;52.994;-3.936;2022-11-03T15:51:09;9.80;;;6.38;;
74383;SDS011;62824;52.994;-3.936;2022-11-03T15:53:34;4.85;;;1.95;;
74383;SDS011;62824;52.994;-3.936;2022-11-03T15:56:00;3.28;;;1.75;;
74383;SDS011;62824;52.994;-3.936;2022-11-03T15:58:26;5.13;;;1.88;;
74383;SDS011;62824;52.994;-3.936;2022-11-03T16:00:57;3.70;;;2.20;;
74383;SDS011;62824;52.994;-3.936;2022-11-03T16:03:22;5.53;;;2.97;;
74383;SDS011;62824;52.994;-3.936;2022-11-03T16:05:48;6.63;;;4.55;;
74383;SDS011;62824;52.994;-3.936;2022-11-03T16:08:14;10.43;;;7.90;;
74383;SDS011;62824;52.994;-3.936;2022-11-03T16:10:40;5.47;;;3.53;;
74383;SDS011;62824;52.994;-3.936;2022-11-03T16:13:06;23.55;;;12.18;;
74383;SDS011;62824;52.994;-3.936;2022-11-03T16:15:32;39.42;;;19.67;;
74383;SDS011;62824;52.994;-3.936;2022-11-03T16:17:57;36.25;;;20.30;;